x

Venice, Fl (venf1) Weather Station

1:00am - Wed 1st Apr 2015 All times are EDT. -4 hours from GMT.

  • Wind
    10mph, 11mph gusts
  • Sea Temp 73°f
  • Air Temp 71°f
  • Sea Pressure 1019.9mb
  • Venice, Fl
  • Venice, Fl

More Historic Weather Station data

Upgrade to MSW Pro to gain access to the past 30 days of data for over 8000 Wavebouys and Weather Stations around the globe.

Join Pro

Comparision Forecast

View Surf forecast
   
Wed 04/01 1:00am 10 11 mph 1019.9mb 73f 71f
12:00am 13
mph
1020mb 73f 70f
Tue 03/31 11:00pm 13
mph
1019.9mb 73f 71f
10:00pm 13 14 mph 1019.7mb 73f 71f
9:00pm 13 14 mph 1019.4mb 73f 71f
8:00pm 13
mph
1019.1mb 73f 71f
7:00pm 14 15 mph 1019mb 73f 72f
6:00pm 15 16 mph 1019mb 74f 72f
5:00pm 16 17 mph 1019.1mb 73f 72f
4:00pm 15 16 mph 1019.5mb 73f 72f
3:00pm 15 17 mph 1020mb 73f 72f
2:00pm 14 15 mph 1020.8mb 73f 72f
1:00pm 11 13 mph 1021.4mb 73f 72f
12:00pm 10 11 mph 1021.7mb 72f 71f
11:00am 7 8 mph 1021.9mb 72f 71f
10:00am 6
mph
1021.9mb 72f 71f
9:00am 6 7 mph 1021.7mb 72f 70f
8:00am 5
mph
1021.4mb 72f 66f
7:00am 5 6 mph 1020.7mb 72f 67f
6:00am 5 6 mph 1020.4mb 72f 65f
5:00am 10 13 mph 1020.1mb 72f 69f
4:00am 9
mph
1020.2mb 72f 69f
3:00am 9 10 mph 1020.7mb 72f 69f
2:00am 10 11 mph 1021.5mb 72f 69f
1:00am 10 11 mph 1022.1mb 72f 69f
12:00am 11 13 mph 1022.6mb 72f 69f
Mon 03/30 11:00pm 13 14 mph 1022.8mb 72f 69f
10:00pm 13 14 mph 1022.5mb 73f 69f
9:00pm 11 13 mph 1022.3mb 73f 69f
8:00pm 11 13 mph 1022.1mb 73f 68f
7:00pm 11 14 mph 1021.8mb 73f 69f
6:00pm 10 13 mph 1021.8mb 73f 69f
5:00pm 15 17 mph 1022.5mb 73f 69f
4:00pm 16 17 mph 1023.3mb 73f 69f
3:00pm 18 20 mph 1024.4mb 73f 68f
2:00pm 15 16 mph 1024.9mb 72f 68f
1:00pm 11 13 mph 1025.1mb 72f 68f
12:00pm 6 8 mph 1025.4mb 71f 69f
11:00am 2 5 mph 1025.3mb 71f 67f
10:00am 6 9 mph 1025.5mb 70f 63f
9:00am 7 10 mph 1024.9mb 70f 57f
8:00am 9 10 mph 1024.3mb 70f 52f
7:00am 9 11 mph 1023.8mb 70f 51f
6:00am 9 10 mph 1023.7mb 71f 51f
5:00am 8 9 mph 1024.3mb 71f 52f
4:00am 8 10 mph 1024.5mb 71f 53f
3:00am 8 9 mph 1024.8mb 71f 54f
2:00am 8 11 mph 1025.3mb 71f 55f
1:00am 9 13 mph 1025.6mb 72f 57f
12:00am 10 13 mph 1026mb 72f 59f
Sun 03/29 11:00pm 10 14 mph 1026.2mb 72f 61f
10:00pm 6 8 mph 1025.8mb 72f 64f
9:00pm 6 8 mph 1024.9mb 73f 66f
8:00pm 7 8 mph 1024.6mb 73f 69f
7:00pm 8 9 mph 1024.3mb 73f 72f
6:00pm 8 10 mph 1024.3mb 73f 72f
5:00pm 2 5 mph 1024.4mb 73f 72f
4:00pm 16 21 mph 1024.6mb 73f 72f
3:00pm 13 18 mph 1025.4mb 73f 71f
2:00pm 13 18 mph 1025.9mb 73f 70f
1:00pm 9 15 mph 1026.6mb 73f 67f
12:00pm 9 11 mph 1027.1mb 72f 65f
11:00am 13 16 mph 1027.6mb 72f 62f
10:00am 14 17 mph 1027.2mb 72f 61f
9:00am 8 11 mph 1026.4mb 72f 58f
8:00am 8 9 mph 1025.8mb 72f 54f
7:00am 8 9 mph 1025.1mb 72f 54f
6:00am 7 8 mph 1023.7mb 72f 54f
5:00am 5 6 mph 1023.3mb 72f 55f
4:00am 7 8 mph 1023.4mb 72f 55f
3:00am 6 7 mph 1023.8mb 72f 57f
2:00am 6
mph
1023.7mb 72f 58f
1:00am 8
mph
1024.1mb 72f 58f
12:00am 6 7 mph 1024.2mb 72f 59f
Sat 03/28 11:00pm 8 9 mph 1023.6mb 73f 60f
10:00pm 7 8 mph 1023.5mb 73f 61f
9:00pm 6 7 mph 1022.4mb 73f 62f
8:00pm 13 15 mph 1021.7mb 73f 63f
7:00pm 21 23 mph 1021.6mb 73f 64f
6:00pm 25 29 mph 1021.1mb 74f 64f
5:00pm 24 26 mph 1020.7mb 74f 64f
4:00pm 24 29 mph 1020.6mb 74f 64f
3:00pm 25 26 mph 1021.4mb 74f 64f
2:00pm 24 26 mph 1021.6mb 74f 64f
1:00pm 26 30 mph 1021.9mb 74f 64f
12:00pm 18 22 mph 1021.9mb 74f 64f
11:00am 14 16 mph 1021.6mb 74f 63f
10:00am 10 14 mph 1021.1mb 74f 61f
9:00am 11 14 mph 1020.3mb 74f 59f
8:00am 8 10 mph 1019.9mb 73f 59f
7:00am 8 10 mph 1018.9mb 74f 62f